sensor_id;sensor_type;location;lat;lon;timestamp;pressure;altitude;pressure_sealevel;temperature;humidity
61478;BME280;47345;52.334;10.392;2024-03-17T00:02:24;101612.66;;;4.07;76.92
61478;BME280;47345;52.334;10.392;2024-03-17T00:04:54;101616.17;;;4.05;76.74
61478;BME280;47345;52.334;10.392;2024-03-17T00:07:24;101614.08;;;4.06;76.97
61478;BME280;47345;52.334;10.392;2024-03-17T00:09:54;101614.79;;;4.06;77.10
61478;BME280;47345;52.334;10.392;2024-03-17T00:12:24;101612.54;;;4.05;77.17
61478;BME280;47345;52.334;10.392;2024-03-17T00:14:54;101612.95;;;4.06;76.92
61478;BME280;47345;52.334;10.392;2024-03-17T00:17:24;101608.37;;;4.05;77.00
61478;BME280;47345;52.334;10.392;2024-03-17T00:19:54;101605.57;;;4.04;77.02
61478;BME280;47345;52.334;10.392;2024-03-17T00:22:24;101605.94;;;4.04;77.10
61478;BME280;47345;52.334;10.392;2024-03-17T00:24:54;101610.34;;;4.06;77.22
61478;BME280;47345;52.334;10.392;2024-03-17T00:27:25;101608.68;;;4.06;77.30
61478;BME280;47345;52.334;10.392;2024-03-17T00:29:55;101612.88;;;4.07;77.18
61478;BME280;47345;52.334;10.392;2024-03-17T00:32:25;101613.35;;;4.08;77.21
61478;BME280;47345;52.334;10.392;2024-03-17T00:34:57;101615.10;;;4.07;76.91
61478;BME280;47345;52.334;10.392;2024-03-17T00:37:27;101614.49;;;4.04;76.95
61478;BME280;47345;52.334;10.392;2024-03-17T00:40:00;101615.64;;;3.99;77.03
61478;BME280;47345;52.334;10.392;2024-03-17T00:42:30;101615.37;;;3.94;77.11
61478;BME280;47345;52.334;10.392;2024-03-17T00:45:01;101616.45;;;3.90;77.21
61478;BME280;47345;52.334;10.392;2024-03-17T00:47:31;101618.73;;;3.87;77.53
61478;BME280;47345;52.334;10.392;2024-03-17T00:50:02;101617.45;;;3.85;77.59
61478;BME280;47345;52.334;10.392;2024-03-17T00:52:33;101616.70;;;3.81;77.51
61478;BME280;47345;52.334;10.392;2024-03-17T00:55:03;101618.64;;;3.80;77.78
61478;BME280;47345;52.334;10.392;2024-03-17T00:57:34;101617.98;;;3.77;77.75
61478;BME280;47345;52.334;10.392;2024-03-17T01:00:05;101617.86;;;3.73;77.61
61478;BME280;47345;52.334;10.392;2024-03-17T01:02:35;101621.91;;;3.70;78.01
61478;BME280;47345;52.334;10.392;2024-03-17T01:05:07;101622.29;;;3.67;78.24
61478;BME280;47345;52.334;10.392;2024-03-17T01:07:37;101619.04;;;3.67;78.35
61478;BME280;47345;52.334;10.392;2024-03-17T01:10:09;101612.01;;;3.66;78.11
61478;BME280;47345;52.334;10.392;2024-03-17T01:12:39;101615.48;;;3.65;78.38
61478;BME280;47345;52.334;10.392;2024-03-17T01:15:10;101621.52;;;3.64;78.56
61478;BME280;47345;52.334;10.392;2024-03-17T01:17:40;101622.30;;;3.63;78.74
61478;BME280;47345;52.334;10.392;2024-03-17T01:20:11;101625.56;;;3.63;78.91
61478;BME280;47345;52.334;10.392;2024-03-17T01:22:41;101624.07;;;3.62;78.73
61478;BME280;47345;52.334;10.392;2024-03-17T01:25:12;101622.18;;;3.57;78.54
61478;BME280;47345;52.334;10.392;2024-03-17T01:27:43;101619.85;;;3.52;79.07
61478;BME280;47345;52.334;10.392;2024-03-17T01:30:13;101614.05;;;3.47;79.12
61478;BME280;47345;52.334;10.392;2024-03-17T01:32:43;101614.13;;;3.46;79.33
61478;BME280;47345;52.334;10.392;2024-03-17T01:35:14;101617.60;;;3.45;79.48
61478;BME280;47345;52.334;10.392;2024-03-17T01:37:44;101619.45;;;3.45;79.74
61478;BME280;47345;52.334;10.392;2024-03-17T01:40:14;101621.98;;;3.45;79.76
61478;BME280;47345;52.334;10.392;2024-03-17T01:42:44;101623.86;;;3.44;79.97
61478;BME280;47345;52.334;10.392;2024-03-17T01:45:28;101617.58;;;3.42;79.95
61478;BME280;47345;52.334;10.392;2024-03-17T01:48:01;101621.52;;;3.40;80.22
61478;BME280;47345;52.334;10.392;2024-03-17T01:50:33;101620.73;;;3.37;80.16
61478;BME280;47345;52.334;10.392;2024-03-17T01:53:06;101618.11;;;3.34;80.47
61478;BME280;47345;52.334;10.392;2024-03-17T01:55:38;101614.26;;;3.30;80.61
61478;BME280;47345;52.334;10.392;2024-03-17T01:58:11;101617.40;;;3.29;80.71
61478;BME280;47345;52.334;10.392;2024-03-17T02:00:41;101614.83;;;3.28;81.03
61478;BME280;47345;52.334;10.392;2024-03-17T02:03:13;101610.44;;;3.27;80.87
61478;BME280;47345;52.334;10.392;2024-03-17T02:05:43;101615.89;;;3.26;80.86
61478;BME280;47345;52.334;10.392;2024-03-17T02:08:14;101611.31;;;3.27;81.23
61478;BME280;47345;52.334;10.392;2024-03-17T02:10:44;101609.89;;;3.29;81.31
61478;BME280;47345;52.334;10.392;2024-03-17T02:13:14;101612.69;;;3.30;81.58
61478;BME280;47345;52.334;10.392;2024-03-17T02:15:44;101610.27;;;3.31;81.40
61478;BME280;47345;52.334;10.392;2024-03-17T02:18:14;101614.60;;;3.31;81.46
61478;BME280;47345;52.334;10.392;2024-03-17T02:20:44;101612.58;;;3.31;81.57
61478;BME280;47345;52.334;10.392;2024-03-17T02:23:28;101610.16;;;3.30;81.57
61478;BME280;47345;52.334;10.392;2024-03-17T02:26:07;101609.40;;;3.28;81.70
61478;BME280;47345;52.334;10.392;2024-03-17T02:28:41;101615.09;;;3.25;81.46
61478;BME280;47345;52.334;10.392;2024-03-17T02:31:12;101614.65;;;3.22;81.65
61478;BME280;47345;52.334;10.392;2024-03-17T02:33:44;101612.94;;;3.19;81.49
61478;BME280;47345;52.334;10.392;2024-03-17T02:36:14;101608.42;;;3.17;81.73
61478;BME280;47345;52.334;10.392;2024-03-17T02:38:46;101605.16;;;3.15;81.76
61478;BME280;47345;52.334;10.392;2024-03-17T02:41:34;101609.58;;;3.14;82.18
61478;BME280;47345;52.334;10.392;2024-03-17T02:44:04;101613.98;;;3.13;82.23
61478;BME280;47345;52.334;10.392;2024-03-17T02:46:34;101612.83;;;3.10;81.93
61478;BME280;47345;52.334;10.392;2024-03-17T02:49:05;101614.05;;;3.08;82.08
61478;BME280;47345;52.334;10.392;2024-03-17T02:51:36;101616.22;;;3.06;81.94
61478;BME280;47345;52.334;10.392;2024-03-17T02:54:06;101617.19;;;3.03;81.92
61478;BME280;47345;52.334;10.392;2024-03-17T02:56:44;101611.41;;;2.99;81.83
61478;BME280;47345;52.334;10.392;2024-03-17T02:59:14;101610.52;;;2.91;81.17
61478;BME280;47345;52.334;10.392;2024-03-17T03:01:44;101607.95;;;2.81;81.09
61478;BME280;47345;52.334;10.392;2024-03-17T03:04:14;101607.26;;;2.72;81.23
61478;BME280;47345;52.334;10.392;2024-03-17T03:06:44;101607.85;;;2.65;81.14
61478;BME280;47345;52.334;10.392;2024-03-17T03:09:14;101612.27;;;2.60;81.40
61478;BME280;47345;52.334;10.392;2024-03-17T03:11:49;101612.90;;;2.57;81.96
61478;BME280;47345;52.334;10.392;2024-03-17T03:14:21;101615.87;;;2.56;82.54
61478;BME280;47345;52.334;10.392;2024-03-17T03:16:51;101612.30;;;2.56;82.59
61478;BME280;47345;52.334;10.392;2024-03-17T03:19:22;101614.23;;;2.52;82.33
61478;BME280;47345;52.334;10.392;2024-03-17T03:21:52;101610.31;;;2.47;81.92
61478;BME280;47345;52.334;10.392;2024-03-17T03:24:22;101611.67;;;2.42;81.82
61478;BME280;47345;52.334;10.392;2024-03-17T03:26:52;101614.20;;;2.38;81.88
61478;BME280;47345;52.334;10.392;2024-03-17T03:29:22;101612.54;;;2.32;81.70
61478;BME280;47345;52.334;10.392;2024-03-17T03:31:52;101612.64;;;2.26;81.82
61478;BME280;47345;52.334;10.392;2024-03-17T03:34:22;101612.86;;;2.22;81.69
61478;BME280;47345;52.334;10.392;2024-03-17T03:36:52;101610.27;;;2.18;81.75
61478;BME280;47345;52.334;10.392;2024-03-17T03:39:25;101615.95;;;2.15;81.90
61478;BME280;47345;52.334;10.392;2024-03-17T03:41:59;101616.89;;;2.14;82.34
61478;BME280;47345;52.334;10.392;2024-03-17T03:44:29;101613.48;;;2.14;82.49
61478;BME280;47345;52.334;10.392;2024-03-17T03:46:59;101605.92;;;2.14;82.63
61478;BME280;47345;52.334;10.392;2024-03-17T03:49:29;101610.60;;;2.12;82.29
61478;BME280;47345;52.334;10.392;2024-03-17T03:51:59;101610.16;;;2.09;82.29
61478;BME280;47345;52.334;10.392;2024-03-17T03:54:29;101608.11;;;2.05;82.43
61478;BME280;47345;52.334;10.392;2024-03-17T03:56:59;101612.38;;;2.02;82.15
61478;BME280;47345;52.334;10.392;2024-03-17T03:59:29;101610.02;;;1.98;82.30
61478;BME280;47345;52.334;10.392;2024-03-17T04:01:59;101609.50;;;1.91;82.18
61478;BME280;47345;52.334;10.392;2024-03-17T04:04:29;101606.82;;;1.84;82.24
61478;BME280;47345;52.334;10.392;2024-03-17T04:06:59;101607.65;;;1.81;82.65
61478;BME280;47345;52.334;10.392;2024-03-17T04:09:29;101616.34;;;1.78;82.95
61478;BME280;47345;52.334;10.392;2024-03-17T04:12:00;101612.92;;;1.73;82.86
61478;BME280;47345;52.334;10.392;2024-03-17T04:14:31;101617.68;;;1.72;83.26
61478;BME280;47345;52.334;10.392;2024-03-17T04:17:01;101623.08;;;1.72;83.46
61478;BME280;47345;52.334;10.392;2024-03-17T04:19:32;101621.77;;;1.73;83.61
61478;BME280;47345;52.334;10.392;2024-03-17T04:22:02;101622.77;;;1.74;83.81
61478;BME280;47345;52.334;10.392;2024-03-17T04:24:32;101621.91;;;1.75;83.85
61478;BME280;47345;52.334;10.392;2024-03-17T04:27:02;101621.39;;;1.80;84.29
61478;BME280;47345;52.334;10.392;2024-03-17T04:29:33;101622.57;;;1.81;83.87
61478;BME280;47345;52.334;10.392;2024-03-17T04:32:04;101625.52;;;1.80;83.30
61478;BME280;47345;52.334;10.392;2024-03-17T04:34:34;101623.84;;;1.81;83.66
61478;BME280;47345;52.334;10.392;2024-03-17T04:37:05;101625.28;;;1.83;83.85
61478;BME280;47345;52.334;10.392;2024-03-17T04:39:35;101629.28;;;1.87;83.97
61478;BME280;47345;52.334;10.392;2024-03-17T04:42:07;101628.10;;;1.90;84.02
61478;BME280;47345;52.334;10.392;2024-03-17T04:44:37;101627.14;;;1.93;83.80
61478;BME280;47345;52.334;10.392;2024-03-17T04:47:09;101628.88;;;1.96;84.04
61478;BME280;47345;52.334;10.392;2024-03-17T04:49:41;101628.69;;;1.98;83.96
61478;BME280;47345;52.334;10.392;2024-03-17T04:52:12;101628.33;;;2.03;84.11
61478;BME280;47345;52.334;10.392;2024-03-17T04:54:42;101629.91;;;2.05;83.96
61478;BME280;47345;52.334;10.392;2024-03-17T04:57:12;101628.91;;;2.06;83.84
61478;BME280;47345;52.334;10.392;2024-03-17T04:59:42;101627.39;;;2.10;84.28
61478;BME280;47345;52.334;10.392;2024-03-17T05:02:12;101629.48;;;2.14;84.64
61478;BME280;47345;52.334;10.392;2024-03-17T05:04:42;101629.17;;;2.18;84.30
61478;BME280;47345;52.334;10.392;2024-03-17T05:07:12;101637.31;;;2.20;84.16
61478;BME280;47345;52.334;10.392;2024-03-17T05:09:42;101636.68;;;2.23;84.25
61478;BME280;47345;52.334;10.392;2024-03-17T05:12:13;101632.41;;;2.29;84.36
61478;BME280;47345;52.334;10.392;2024-03-17T05:14:43;101629.17;;;2.33;84.80
61478;BME280;47345;52.334;10.392;2024-03-17T05:17:13;101640.20;;;2.41;84.96
61478;BME280;47345;52.334;10.392;2024-03-17T05:19:43;101641.61;;;2.48;84.74
61478;BME280;47345;52.334;10.392;2024-03-17T05:22:13;101643.66;;;2.56;85.19
61478;BME280;47345;52.334;10.392;2024-03-17T05:24:44;101643.34;;;2.63;85.24
61478;BME280;47345;52.334;10.392;2024-03-17T05:27:14;101647.47;;;2.72;85.07
61478;BME280;47345;52.334;10.392;2024-03-17T05:29:44;101651.20;;;2.79;85.27
61478;BME280;47345;52.334;10.392;2024-03-17T05:32:13;101639.27;;;2.86;85.49
61478;BME280;47345;52.334;10.392;2024-03-17T05:34:43;101644.16;;;2.96;85.35
61478;BME280;47345;52.334;10.392;2024-03-17T05:37:13;101651.10;;;3.01;85.24
61478;BME280;47345;52.334;10.392;2024-03-17T05:39:44;101652.95;;;3.08;85.61
61478;BME280;47345;52.334;10.392;2024-03-17T05:42:15;101656.84;;;3.14;84.99
61478;BME280;47345;52.334;10.392;2024-03-17T05:44:45;101659.88;;;3.18;84.85
61478;BME280;47345;52.334;10.392;2024-03-17T05:47:21;101659.06;;;3.23;84.77
61478;BME280;47345;52.334;10.392;2024-03-17T05:49:51;101670.29;;;3.27;84.47
61478;BME280;47345;52.334;10.392;2024-03-17T05:52:21;101668.48;;;3.31;84.72
61478;BME280;47345;52.334;10.392;2024-03-17T05:54:51;101664.43;;;3.34;84.77
61478;BME280;47345;52.334;10.392;2024-03-17T05:57:21;101663.70;;;3.38;84.77
61478;BME280;47345;52.334;10.392;2024-03-17T05:59:52;101663.58;;;3.44;84.87
61478;BME280;47345;52.334;10.392;2024-03-17T06:02:24;101667.30;;;3.52;85.23
61478;BME280;47345;52.334;10.392;2024-03-17T06:04:54;101674.59;;;3.62;85.12
61478;BME280;47345;52.334;10.392;2024-03-17T06:07:24;101674.68;;;3.63;83.96
61478;BME280;47345;52.334;10.392;2024-03-17T06:09:54;101679.53;;;3.63;83.76
61478;BME280;47345;52.334;10.392;2024-03-17T06:12:24;101681.41;;;3.70;84.46
61478;BME280;47345;52.334;10.392;2024-03-17T06:14:54;101679.61;;;3.78;84.57
61478;BME280;47345;52.334;10.392;2024-03-17T06:17:24;101680.38;;;3.88;84.54
61478;BME280;47345;52.334;10.392;2024-03-17T06:19:55;101680.63;;;3.93;83.72
61478;BME280;47345;52.334;10.392;2024-03-17T06:22:26;101681.61;;;3.98;83.57
61478;BME280;47345;52.334;10.392;2024-03-17T06:24:56;101683.22;;;4.04;83.66
61478;BME280;47345;52.334;10.392;2024-03-17T06:27:25;101688.66;;;4.11;83.89
61478;BME280;47345;52.334;10.392;2024-03-17T06:29:55;101688.95;;;4.20;84.23
61478;BME280;47345;52.334;10.392;2024-03-17T06:32:26;101690.63;;;4.31;84.31
61478;BME280;47345;52.334;10.392;2024-03-17T06:34:56;101690.71;;;4.42;84.34
61478;BME280;47345;52.334;10.392;2024-03-17T06:37:25;101693.85;;;4.53;84.17
61478;BME280;47345;52.334;10.392;2024-03-17T06:39:55;101694.66;;;4.64;84.00
61478;BME280;47345;52.334;10.392;2024-03-17T06:42:25;101690.50;;;4.76;84.05
61478;BME280;47345;52.334;10.392;2024-03-17T06:44:55;101690.13;;;4.89;84.08
61478;BME280;47345;52.334;10.392;2024-03-17T06:47:25;101685.23;;;5.04;84.19
61478;BME280;47345;52.334;10.392;2024-03-17T06:49:59;101689.88;;;5.21;83.67
61478;BME280;47345;52.334;10.392;2024-03-17T06:52:28;101684.58;;;5.28;83.19
61478;BME280;47345;52.334;10.392;2024-03-17T06:54:59;101687.15;;;5.41;83.08
61478;BME280;47345;52.334;10.392;2024-03-17T06:57:30;101685.23;;;5.54;82.92
61478;BME280;47345;52.334;10.392;2024-03-17T07:00:00;101688.52;;;5.68;83.05
61478;BME280;47345;52.334;10.392;2024-03-17T07:02:30;101689.57;;;5.85;83.01
61478;BME280;47345;52.334;10.392;2024-03-17T07:05:01;101691.02;;;6.04;83.13
61478;BME280;47345;52.334;10.392;2024-03-17T07:07:31;101689.85;;;6.23;82.95
61478;BME280;47345;52.334;10.392;2024-03-17T07:10:01;101683.00;;;6.40;82.60
61478;BME280;47345;52.334;10.392;2024-03-17T07:12:34;101684.58;;;6.55;82.02
61478;BME280;47345;52.334;10.392;2024-03-17T07:15:05;101681.03;;;6.67;81.48
61478;BME280;47345;52.334;10.392;2024-03-17T07:17:36;101681.21;;;6.81;80.96
61478;BME280;47345;52.334;10.392;2024-03-17T07:20:08;101681.23;;;6.93;80.96
61478;BME280;47345;52.334;10.392;2024-03-17T07:22:44;101683.10;;;7.07;81.05
61478;BME280;47345;52.334;10.392;2024-03-17T07:25:15;101687.13;;;7.20;80.54
61478;BME280;47345;52.334;10.392;2024-03-17T07:27:45;101681.76;;;7.35;80.46
61478;BME280;47345;52.334;10.392;2024-03-17T07:30:15;101676.30;;;7.49;80.36
61478;BME280;47345;52.334;10.392;2024-03-17T07:32:45;101673.13;;;7.64;79.71
61478;BME280;47345;52.334;10.392;2024-03-17T07:35:16;101671.70;;;7.76;78.91
61478;BME280;47345;52.334;10.392;2024-03-17T07:37:46;101674.05;;;7.86;78.99
61478;BME280;47345;52.334;10.392;2024-03-17T07:40:16;101678.23;;;7.99;78.68
61478;BME280;47345;52.334;10.392;2024-03-17T07:42:46;101681.99;;;8.18;78.82
61478;BME280;47345;52.334;10.392;2024-03-17T07:45:16;101675.52;;;8.36;78.24
61478;BME280;47345;52.334;10.392;2024-03-17T07:47:50;101673.22;;;8.51;77.23
61478;BME280;47345;52.334;10.392;2024-03-17T07:50:20;101674.44;;;8.56;76.82
61478;BME280;47345;52.334;10.392;2024-03-17T07:52:51;101671.91;;;8.61;76.43
61478;BME280;47345;52.334;10.392;2024-03-17T07:55:21;101673.25;;;8.62;75.77
61478;BME280;47345;52.334;10.392;2024-03-17T07:57:51;101675.27;;;8.64;75.42
61478;BME280;47345;52.334;10.392;2024-03-17T08:00:21;101677.91;;;8.67;75.53
61478;BME280;47345;52.334;10.392;2024-03-17T08:02:51;101680.50;;;8.70;74.89
61478;BME280;47345;52.334;10.392;2024-03-17T08:05:22;101679.38;;;8.70;74.62
61478;BME280;47345;52.334;10.392;2024-03-17T08:07:52;101680.09;;;8.67;74.80
61478;BME280;47345;52.334;10.392;2024-03-17T08:10:22;101672.31;;;8.68;75.35
61478;BME280;47345;52.334;10.392;2024-03-17T08:12:52;101670.52;;;8.74;75.03
61478;BME280;47345;52.334;10.392;2024-03-17T08:15:24;101667.70;;;8.71;74.65
61478;BME280;47345;52.334;10.392;2024-03-17T08:17:54;101667.78;;;8.72;75.10
61478;BME280;47345;52.334;10.392;2024-03-17T08:20:24;101664.73;;;8.78;74.91
61478;BME280;47345;52.334;10.392;2024-03-17T08:22:55;101668.01;;;8.80;74.63
61478;BME280;47345;52.334;10.392;2024-03-17T08:25:25;101668.15;;;8.81;74.22
61478;BME280;47345;52.334;10.392;2024-03-17T08:27:55;101670.46;;;8.85;73.92
61478;BME280;47345;52.334;10.392;2024-03-17T08:30:25;101670.10;;;8.93;74.09
61478;BME280;47345;52.334;10.392;2024-03-17T08:32:55;101669.56;;;9.05;73.59
61478;BME280;47345;52.334;10.392;2024-03-17T08:35:25;101668.14;;;9.11;73.22
61478;BME280;47345;52.334;10.392;2024-03-17T08:37:56;101667.05;;;9.21;73.16
61478;BME280;47345;52.334;10.392;2024-03-17T08:40:27;101667.90;;;9.34;73.08
61478;BME280;47345;52.334;10.392;2024-03-17T08:42:57;101665.30;;;9.52;72.90
61478;BME280;47345;52.334;10.392;2024-03-17T08:45:27;101664.15;;;9.70;72.36
61478;BME280;47345;52.334;10.392;2024-03-17T08:48:11;101669.51;;;9.92;71.35
61478;BME280;47345;52.334;10.392;2024-03-17T08:50:41;101669.45;;;10.05;69.92
61478;BME280;47345;52.334;10.392;2024-03-17T08:53:11;101669.56;;;10.19;69.44
61478;BME280;47345;52.334;10.392;2024-03-17T08:55:41;101662.27;;;10.33;68.82
61478;BME280;47345;52.334;10.392;2024-03-17T08:58:11;101659.84;;;10.46;68.67
61478;BME280;47345;52.334;10.392;2024-03-17T09:00:41;101660.46;;;10.61;68.17
61478;BME280;47345;52.334;10.392;2024-03-17T09:03:12;101656.80;;;10.71;67.46
61478;BME280;47345;52.334;10.392;2024-03-17T09:05:43;101656.38;;;10.84;67.78
61478;BME280;47345;52.334;10.392;2024-03-17T09:08:17;101654.62;;;11.08;67.57
61478;BME280;47345;52.334;10.392;2024-03-17T09:10:50;101654.70;;;11.32;66.47
61478;BME280;47345;52.334;10.392;2024-03-17T09:13:22;101648.63;;;11.55;66.20
61478;BME280;47345;52.334;10.392;2024-03-17T09:15:55;101647.63;;;11.74;64.62
61478;BME280;47345;52.334;10.392;2024-03-17T09:18:26;101647.92;;;11.82;63.99
61478;BME280;47345;52.334;10.392;2024-03-17T09:21:02;101652.66;;;11.96;64.11
61478;BME280;47345;52.334;10.392;2024-03-17T09:23:33;101651.92;;;12.08;63.33
61478;BME280;47345;52.334;10.392;2024-03-17T09:26:05;101656.92;;;12.21;62.73
61478;BME280;47345;52.334;10.392;2024-03-17T09:28:37;101660.58;;;12.28;61.92
61478;BME280;47345;52.334;10.392;2024-03-17T09:31:07;101661.41;;;12.37;62.27
61478;BME280;47345;52.334;10.392;2024-03-17T09:33:38;101658.88;;;12.45;60.97
61478;BME280;47345;52.334;10.392;2024-03-17T09:36:09;101657.41;;;12.49;60.29
61478;BME280;47345;52.334;10.392;2024-03-17T09:38:40;101657.48;;;12.50;60.08
61478;BME280;47345;52.334;10.392;2024-03-17T09:41:17;101650.64;;;12.51;59.69
61478;BME280;47345;52.334;10.392;2024-03-17T09:43:49;101649.29;;;12.62;59.28
61478;BME280;47345;52.334;10.392;2024-03-17T09:46:20;101646.59;;;12.75;59.12
61478;BME280;47345;52.334;10.392;2024-03-17T09:48:52;101644.88;;;12.91;59.08
61478;BME280;47345;52.334;10.392;2024-03-17T09:51:26;101645.75;;;12.99;58.25
61478;BME280;47345;52.334;10.392;2024-03-17T09:53:56;101647.23;;;13.01;57.13
61478;BME280;47345;52.334;10.392;2024-03-17T09:56:29;101648.95;;;13.06;57.12
61478;BME280;47345;52.334;10.392;2024-03-17T09:59:04;101651.11;;;13.13;56.79
61478;BME280;47345;52.334;10.392;2024-03-17T10:01:36;101656.44;;;13.20;56.29
61478;BME280;47345;52.334;10.392;2024-03-17T10:04:08;101654.34;;;13.21;55.86
61478;BME280;47345;52.334;10.392;2024-03-17T10:06:47;101657.30;;;13.25;56.28
61478;BME280;47345;52.334;10.392;2024-03-17T10:09:21;101655.50;;;13.36;56.11
61478;BME280;47345;52.334;10.392;2024-03-17T10:11:52;101653.65;;;13.39;55.31
61478;BME280;47345;52.334;10.392;2024-03-17T10:14:22;101652.18;;;13.38;54.86
61478;BME280;47345;52.334;10.392;2024-03-17T10:16:52;101646.88;;;13.37;54.35
61478;BME280;47345;52.334;10.392;2024-03-17T10:19:25;101652.11;;;13.35;54.63
61478;BME280;47345;52.334;10.392;2024-03-17T10:22:01;101649.80;;;13.30;54.03
61478;BME280;47345;52.334;10.392;2024-03-17T10:24:32;101649.27;;;13.22;53.78
61478;BME280;47345;52.334;10.392;2024-03-17T10:27:04;101644.02;;;13.13;53.81
61478;BME280;47345;52.334;10.392;2024-03-17T10:29:40;101649.33;;;13.05;53.45
61478;BME280;47345;52.334;10.392;2024-03-17T10:32:16;101652.29;;;12.91;53.24
61478;BME280;47345;52.334;10.392;2024-03-17T10:34:49;101650.61;;;12.82;53.46
61478;BME280;47345;52.334;10.392;2024-03-17T10:37:20;101654.73;;;12.75;53.86
61478;BME280;47345;52.334;10.392;2024-03-17T10:39:53;101656.31;;;12.70;53.81
61478;BME280;47345;52.334;10.392;2024-03-17T10:42:27;101660.90;;;12.74;54.08
61478;BME280;47345;52.334;10.392;2024-03-17T10:45:00;101660.61;;;12.81;53.66
61478;BME280;47345;52.334;10.392;2024-03-17T10:47:30;101663.02;;;12.88;53.41
61478;BME280;47345;52.334;10.392;2024-03-17T10:50:03;101660.44;;;12.86;52.84
61478;BME280;47345;52.334;10.392;2024-03-17T10:52:39;101662.73;;;12.83;52.41
61478;BME280;47345;52.334;10.392;2024-03-17T10:55:24;101663.30;;;12.73;52.79
61478;BME280;47345;52.334;10.392;2024-03-17T10:57:55;101659.05;;;12.69;53.12
61478;BME280;47345;52.334;10.392;2024-03-17T11:00:27;101660.98;;;12.74;53.28
61478;BME280;47345;52.334;10.392;2024-03-17T11:02:58;101659.08;;;12.72;53.18
61478;BME280;47345;52.334;10.392;2024-03-17T11:05:29;101658.24;;;12.68;52.93
61478;BME280;47345;52.334;10.392;2024-03-17T11:08:03;101653.58;;;12.73;52.88
61478;BME280;47345;52.334;10.392;2024-03-17T11:10:36;101651.79;;;12.76;52.92
61478;BME280;47345;52.334;10.392;2024-03-17T11:13:23;101648.55;;;12.83;52.73
61478;BME280;47345;52.334;10.392;2024-03-17T11:15:54;101647.83;;;12.76;52.81
61478;BME280;47345;52.334;10.392;2024-03-17T11:18:35;101646.73;;;12.65;52.75
61478;BME280;47345;52.334;10.392;2024-03-17T11:21:20;101643.09;;;12.53;53.26
61478;BME280;47345;52.334;10.392;2024-03-17T11:23:58;101641.15;;;12.49;54.33
61478;BME280;47345;52.334;10.392;2024-03-17T11:26:33;101636.27;;;12.47;53.77
61478;BME280;47345;52.334;10.392;2024-03-17T11:29:04;101635.27;;;12.42;53.22
61478;BME280;47345;52.334;10.392;2024-03-17T11:31:41;101640.80;;;12.38;53.28
61478;BME280;47345;52.334;10.392;2024-03-17T11:34:43;101638.44;;;12.34;53.04
61478;BME280;47345;52.334;10.392;2024-03-17T11:37:42;101637.92;;;12.36;53.00
61478;BME280;47345;52.334;10.392;2024-03-17T11:40:28;101635.66;;;12.59;52.92
61478;BME280;47345;52.334;10.392;2024-03-17T11:43:05;101634.48;;;12.88;52.52
61478;BME280;47345;52.334;10.392;2024-03-17T11:45:36;101633.31;;;13.05;51.89
61478;BME280;47345;52.334;10.392;2024-03-17T11:48:13;101635.85;;;13.14;51.41
61478;BME280;47345;52.334;10.392;2024-03-17T11:50:45;101631.21;;;13.21;51.79
61478;BME280;47345;52.334;10.392;2024-03-17T11:53:15;101630.27;;;13.35;51.68
61478;BME280;47345;52.334;10.392;2024-03-17T11:55:50;101628.32;;;13.36;50.65
61478;BME280;47345;52.334;10.392;2024-03-17T11:58:20;101628.50;;;13.52;50.98
61478;BME280;47345;52.334;10.392;2024-03-17T12:00:53;101622.26;;;13.66;50.20
61478;BME280;47345;52.334;10.392;2024-03-17T12:03:24;101616.52;;;13.76;50.41
61478;BME280;47345;52.334;10.392;2024-03-17T12:05:54;101618.92;;;13.86;49.85
61478;BME280;47345;52.334;10.392;2024-03-17T12:08:24;101615.23;;;13.84;50.11
61478;BME280;47345;52.334;10.392;2024-03-17T12:10:54;101609.44;;;13.82;51.41
61478;BME280;47345;52.334;10.392;2024-03-17T12:13:24;101605.88;;;13.77;50.79
61478;BME280;47345;52.334;10.392;2024-03-17T12:16:13;101601.54;;;13.58;49.61
61478;BME280;47345;52.334;10.392;2024-03-17T12:18:43;101591.04;;;13.54;49.96
61478;BME280;47345;52.334;10.392;2024-03-17T12:21:15;101590.92;;;13.56;50.68
61478;BME280;47345;52.334;10.392;2024-03-17T12:23:45;101582.86;;;13.52;50.78
61478;BME280;47345;52.334;10.392;2024-03-17T12:26:17;101584.87;;;13.44;51.59
61478;BME280;47345;52.334;10.392;2024-03-17T12:28:48;101581.23;;;13.29;51.57
61478;BME280;47345;52.334;10.392;2024-03-17T12:31:18;101580.44;;;13.19;50.43
61478;BME280;47345;52.334;10.392;2024-03-17T12:33:49;101576.38;;;13.29;50.61
61478;BME280;47345;52.334;10.392;2024-03-17T12:36:19;101569.80;;;13.37;50.83
61478;BME280;47345;52.334;10.392;2024-03-17T12:38:49;101563.38;;;13.36;50.59
61478;BME280;47345;52.334;10.392;2024-03-17T12:41:19;101559.07;;;13.21;49.86
61478;BME280;47345;52.334;10.392;2024-03-17T12:43:50;101559.23;;;13.14;49.98
61478;BME280;47345;52.334;10.392;2024-03-17T12:46:21;101555.23;;;13.04;51.29
61478;BME280;47345;52.334;10.392;2024-03-17T12:49:00;101559.80;;;13.06;51.41
61478;BME280;47345;52.334;10.392;2024-03-17T12:51:30;101556.05;;;13.15;52.00
61478;BME280;47345;52.334;10.392;2024-03-17T12:54:14;101554.65;;;13.29;52.03
61478;BME280;47345;52.334;10.392;2024-03-17T12:56:46;101554.17;;;13.40;50.19
61478;BME280;47345;52.334;10.392;2024-03-17T12:59:41;101549.14;;;13.44;50.29
61478;BME280;47345;52.334;10.392;2024-03-17T13:02:29;101546.57;;;13.42;50.86
61478;BME280;47345;52.334;10.392;2024-03-17T13:05:14;101541.30;;;13.42;50.86
61478;BME280;47345;52.334;10.392;2024-03-17T13:07:46;101537.73;;;13.33;50.63
61478;BME280;47345;52.334;10.392;2024-03-17T13:10:17;101537.14;;;13.14;50.11
61478;BME280;47345;52.334;10.392;2024-03-17T13:12:48;101534.31;;;13.05;50.06